Time;durP1;ratioP1;P1;durP2;ratioP2;P2;SDS_P1;SDS_P2;PMS_P1;PMS_P2;Temp;Humidity;BMP_temperature;BMP_pressure;BME280_temperature;BME280_humidity;BME280_pressure;Samples;Min_cycle;Max_cycle;Signal;HPM_P1;HPM_P2
2022/09/04 00:01:50;;;;;;;7.88;4.05;;;20.40;68.10;;;;;;5012827;28;20033;-77
2022/09/04 00:04:21;;;;;;;5.80;3.30;;;20.40;68.30;;;;;;5023923;28;20060;-76
2022/09/04 00:07:01;;;;;;;6.47;3.50;;;20.40;68.40;;;;;;5028430;28;20108;-76
2022/09/04 00:10:03;;;;;;;6.93;3.38;;;20.30;68.70;;;;;;5020569;28;20053;-77
2022/09/04 00:12:34;;;;;;;7.05;3.40;;;20.30;69.00;;;;;;5014007;28;20041;-76
2022/09/04 00:15:20;;;;;;;6.18;3.63;;;20.30;68.90;;;;;;5014251;28;20061;-76
2022/09/04 00:17:52;;;;;;;6.18;3.42;;;20.20;69.30;;;;;;5015803;28;20026;-76
2022/09/04 00:20:29;;;;;;;7.75;3.70;;;20.20;69.40;;;;;;5031521;28;20087;-76
2022/09/04 00:23:10;;;;;;;6.75;3.50;;;20.20;69.50;;;;;;5033717;28;20021;-76
2022/09/04 00:26:01;;;;;;;5.68;3.22;;;20.10;69.80;;;;;;5030089;28;20029;-76
2022/09/04 00:28:39;;;;;;;6.40;4.00;;;20.10;70.00;;;;;;5022269;28;20059;-76
2022/09/04 00:31:27;;;;;;;9.45;4.22;;;20.00;70.10;;;;;;5030403;28;20377;-77
2022/09/04 00:34:31;;;;;;;7.20;3.88;;;20.00;70.30;;;;;;5033476;28;20056;-77
2022/09/04 00:37:03;;;;;;;6.60;4.03;;;20.00;70.70;;;;;;5032195;28;20446;-77
2022/09/04 00:40:08;;;;;;;8.75;3.58;;;20.00;70.70;;;;;;5033290;28;20026;-77
2022/09/04 00:43:05;;;;;;;5.32;3.42;;;19.90;71.20;;;;;;5011977;28;20037;-76
2022/09/04 00:45:42;;;;;;;8.63;4.22;;;19.90;71.30;;;;;;5020675;28;20112;-76
2022/09/04 00:48:20;;;;;;;8.15;3.88;;;19.80;71.40;;;;;;5032110;28;20032;-76
2022/09/04 00:51:10;;;;;;;8.15;4.38;;;19.80;71.70;;;;;;5033763;28;20386;-76
2022/09/04 00:53:48;;;;;;;7.80;3.90;;;19.70;72.60;;;;;;5032058;28;20022;-76
2022/09/04 00:56:35;;;;;;;8.75;4.13;;;19.80;72.30;;;;;;5033470;28;20470;-77
2022/09/04 00:59:17;;;;;;;9.90;4.60;;;19.70;72.60;;;;;;5032614;28;20384;-77
2022/09/04 01:01:48;;;;;;;6.95;4.35;;;19.60;73.30;;;;;;5032332;28;20032;-78
2022/09/04 01:04:48;;;;;;;8.73;4.88;;;19.60;72.70;;;;;;5033711;28;20021;-77
2022/09/04 01:07:21;;;;;;;7.22;4.43;;;19.60;73.10;;;;;;5024997;28;20079;-77
2022/09/04 01:09:59;;;;;;;7.60;4.60;;;19.60;73.20;;;;;;5033620;28;20049;-77
2022/09/04 01:12:38;;;;;;;10.05;4.85;;;19.50;73.50;;;;;;5035985;28;20075;-77
2022/09/04 01:15:21;;;;;;;8.70;5.03;;;19.50;73.80;;;;;;5036875;28;20036;-77
2022/09/04 01:17:58;;;;;;;7.85;4.75;;;19.50;74.10;;;;;;5036141;28;20043;-77
2022/09/04 01:20:57;;;;;;;8.77;5.18;;;19.50;74.30;;;;;;5034754;28;20072;-77
2022/09/04 01:23:47;;;;;;;9.60;5.43;;;19.40;74.80;;;;;;5034119;28;20477;-77
2022/09/04 01:26:44;;;;;;;11.23;5.45;;;19.40;75.00;;;;;;5034158;28;20040;-78
2022/09/04 01:29:21;;;;;;;11.45;6.60;;;19.30;75.20;;;;;;5034403;28;20033;-77
2022/09/04 01:32:09;;;;;;;9.27;5.40;;;19.30;75.50;;;;;;5035272;28;20055;-77
2022/09/04 01:34:48;;;;;;;8.30;5.22;;;19.30;75.90;;;;;;5035477;28;20030;-76
2022/09/04 01:37:51;;;;;;;8.65;4.95;;;19.20;76.10;;;;;;5026980;28;20044;-77
2022/09/04 01:40:37;;;;;;;7.22;4.57;;;19.30;76.60;;;;;;5033634;28;20339;-77
2022/09/04 01:43:05;;;;;;;10.10;5.20;;;19.20;76.60;;;;;;5034826;28;20061;-77
2022/09/04 01:46:15;;;;;;;12.27;6.05;;;19.20;77.00;;;;;;5033528;28;20107;-77
2022/09/04 01:49:01;;;;;;;9.32;5.47;;;19.20;77.40;;;;;;5010313;28;20083;-76
2022/09/04 01:52:14;;;;;;;8.38;5.13;;;19.10;77.60;;;;;;4998908;28;20030;-77
2022/09/04 01:55:24;;;;;;;10.20;5.90;;;19.20;77.80;;;;;;4953885;29;20043;-78
2022/09/04 01:58:20;;;;;;;8.55;5.85;;;19.10;78.10;;;;;;4938819;29;20034;-78
2022/09/04 02:01:09;;;;;;;13.07;6.20;;;19.10;78.10;;;;;;5013773;28;20394;-79
2022/09/04 02:03:53;;;;;;;10.77;6.20;;;19.10;78.30;;;;;;5013888;28;20105;-78
2022/09/04 02:06:41;;;;;;;8.63;5.95;;;19.00;78.60;;;;;;5015249;28;20026;-79
2022/09/04 02:09:25;;;;;;;8.98;5.78;;;19.00;78.80;;;;;;5015152;28;20041;-78
2022/09/04 02:12:21;;;;;;;9.73;6.03;;;19.00;79.00;;;;;;5013868;28;20129;-78
2022/09/04 02:14:57;;;;;;;8.82;6.10;;;19.00;79.10;;;;;;5021678;28;20505;-78
2022/09/04 02:17:38;;;;;;;9.45;6.20;;;19.00;79.30;;;;;;5033697;28;20482;-79
2022/09/04 02:20:11;;;;;;;10.45;6.35;;;18.90;79.60;;;;;;4996073;28;1114399;-79
2022/09/04 02:23:02;;;;;;;9.82;6.47;;;18.90;79.70;;;;;;5035828;28;20025;-79
2022/09/04 02:25:48;;;;;;;10.77;6.72;;;18.90;79.90;;;;;;5035703;28;20060;-79
2022/09/04 02:28:26;;;;;;;10.32;7.00;;;18.90;80.10;;;;;;5024619;28;20034;-79
2022/09/04 02:31:18;;;;;;;9.93;6.18;;;18.90;80.20;;;;;;5035935;28;20033;-79
2022/09/04 02:33:50;;;;;;;9.73;7.47;;;18.80;80.40;;;;;;5034044;28;20033;-79
2022/09/04 02:36:29;;;;;;;10.93;7.28;;;18.80;80.60;;;;;;5030111;28;20444;-79
2022/09/04 02:39:07;;;;;;;11.38;7.45;;;18.80;80.60;;;;;;5022857;28;20022;-79
2022/09/04 02:41:57;;;;;;;10.45;6.85;;;18.80;80.90;;;;;;5015893;28;20060;-79
2022/09/04 02:44:42;;;;;;;12.07;7.20;;;18.80;81.00;;;;;;5030955;28;20040;-79
2022/09/04 02:47:27;;;;;;;10.77;7.15;;;18.70;81.10;;;;;;5020856;28;20030;-79
2022/09/04 02:50:16;;;;;;;9.65;7.22;;;18.70;81.50;;;;;;5015402;28;20026;-79
2022/09/04 02:53:23;;;;;;;11.18;7.28;;;18.60;81.50;;;;;;5015970;28;20084;-79
2022/09/04 02:56:00;;;;;;;12.93;7.50;;;18.60;81.80;;;;;;5029163;28;20113;-77
2022/09/04 02:58:50;;;;;;;10.60;6.88;;;18.60;81.80;;;;;;5015630;28;20025;-77
2022/09/04 03:01:40;;;;;;;10.82;7.43;;;18.60;82.00;;;;;;5014191;28;20040;-77
2022/09/04 03:04:38;;;;;;;11.05;7.25;;;18.50;82.00;;;;;;5014565;28;20112;-77
2022/09/04 03:07:17;;;;;;;11.73;7.88;;;18.50;82.20;;;;;;5012682;28;20100;-79
2022/09/04 03:10:30;;;;;;;9.90;7.22;;;18.50;82.40;;;;;;5030581;28;20080;-77
2022/09/04 03:13:22;;;;;;;10.50;7.47;;;18.50;82.60;;;;;;5014565;28;20046;-77
2022/09/04 03:16:16;;;;;;;12.38;8.27;;;18.50;82.80;;;;;;5011388;28;20375;-77
2022/09/04 03:18:56;;;;;;;10.40;7.90;;;18.40;82.90;;;;;;5020071;28;20017;-77
2022/09/04 03:21:52;;;;;;;10.18;7.80;;;18.40;82.90;;;;;;5034346;28;20493;-76
2022/09/04 03:24:48;;;;;;;10.85;7.78;;;18.40;83.00;;;;;;5033461;28;20363;-76
2022/09/04 03:27:15;;;;;;;10.45;7.47;;;18.40;83.20;;;;;;5033537;28;20086;-76
2022/09/04 03:30:02;;;;;;;10.70;7.78;;;18.30;83.10;;;;;;5033382;28;20026;-76
2022/09/04 03:32:52;;;;;;;12.43;8.45;;;18.30;83.30;;;;;;5032697;28;20059;-76
2022/09/04 03:35:27;;;;;;;11.70;8.38;;;18.30;83.50;;;;;;5034411;28;20025;-76
2022/09/04 03:38:33;;;;;;;11.75;8.80;;;18.30;83.60;;;;;;5034476;28;20454;-77
2022/09/04 03:41:17;;;;;;;11.13;8.98;;;18.20;83.70;;;;;;5034433;28;20105;-77
2022/09/04 03:43:46;;;;;;;13.10;9.32;;;18.20;84.10;;;;;;5034739;28;20026;-78
2022/09/04 03:46:36;;;;;;;11.55;8.95;;;18.10;84.00;;;;;;5029604;28;20034;-76
2022/09/04 03:49:15;;;;;;;11.02;8.48;;;18.10;84.20;;;;;;5031753;28;20370;-76
2022/09/04 03:51:59;;;;;;;11.00;8.45;;;18.10;84.20;;;;;;5028795;28;20030;-76
2022/09/04 03:54:27;;;;;;;;;;;18.10;84.40;;;;;;5028318;28;20479;-77
2022/09/04 03:57:20;;;;;;;10.65;7.72;;;18.00;84.50;;;;;;5019317;28;19905;-77
2022/09/04 04:00:10;;;;;;;11.77;9.00;;;18.00;84.40;;;;;;5016794;28;20076;-79
2022/09/04 04:03:18;;;;;;;12.10;9.40;;;18.00;84.50;;;;;;5013158;28;20474;-76
2022/09/04 04:06:05;;;;;;;14.35;8.70;;;18.00;84.80;;;;;;5014247;28;20080;-77
2022/09/04 04:09:03;;;;;;;12.25;8.95;;;18.00;84.80;;;;;;5025517;28;20025;-77
2022/09/04 04:11:53;;;;;;;13.73;8.88;;;17.90;85.00;;;;;;5033913;28;20095;-78
2022/09/04 04:14:37;;;;;;;15.48;9.48;;;17.90;85.20;;;;;;5032456;28;20041;-78
2022/09/04 04:17:17;;;;;;;13.25;9.80;;;17.90;85.20;;;;;;5033926;28;20037;-76
2022/09/04 04:19:51;;;;;;;14.95;9.85;;;17.90;85.50;;;;;;5013929;28;20046;-78
2022/09/04 04:22:23;;;;;;;13.70;9.73;;;17.90;85.70;;;;;;5014055;28;20112;-78
2022/09/04 04:25:10;;;;;;;16.40;10.52;;;17.90;85.90;;;;;;5013903;28;20077;-77
2022/09/04 04:27:44;;;;;;;15.63;10.55;;;17.80;86.00;;;;;;5012838;28;20058;-76
2022/09/04 04:30:15;;;;;;;13.40;9.95;;;17.80;86.10;;;;;;5013373;28;20477;-76
2022/09/04 04:32:49;;;;;;;13.43;9.95;;;17.80;86.30;;;;;;5012831;28;20026;-77
2022/09/04 04:35:48;;;;;;;14.50;9.90;;;17.80;86.40;;;;;;5012825;28;20081;-77
2022/09/04 04:38:27;;;;;;;14.50;9.82;;;17.80;86.50;;;;;;5012596;28;20038;-76
2022/09/04 04:41:22;;;;;;;16.13;11.02;;;17.80;86.60;;;;;;5012617;28;20405;-78
2022/09/04 04:44:15;;;;;;;14.73;9.88;;;17.70;86.80;;;;;;5011571;28;20054;-76
2022/09/04 04:47:02;;;;;;;15.65;10.50;;;17.70;86.90;;;;;;5014385;28;20026;-78
2022/09/04 04:49:50;;;;;;;16.65;11.10;;;17.70;87.10;;;;;;5032296;28;20036;-78
2022/09/04 04:52:43;;;;;;;14.60;10.95;;;17.70;87.40;;;;;;5033571;28;20548;-78
2022/09/04 04:55:20;;;;;;;17.85;10.57;;;17.70;87.40;;;;;;5031820;28;20029;-78
2022/09/04 04:58:13;;;;;;;14.02;10.25;;;17.70;87.60;;;;;;5032846;28;20049;-76
2022/09/04 05:01:15;;;;;;;14.10;10.50;;;17.70;87.70;;;;;;5033497;28;20108;-76
2022/09/04 05:03:53;;;;;;;14.35;10.20;;;17.70;88.00;;;;;;5013861;28;20041;-76
2022/09/04 05:06:46;;;;;;;13.00;10.38;;;17.60;87.90;;;;;;5014126;28;20374;-77
2022/09/04 05:09:30;;;;;;;14.20;11.13;;;17.60;88.00;;;;;;5033521;28;20033;-76
2022/09/04 05:12:14;;;;;;;15.38;11.18;;;17.60;88.00;;;;;;5033563;28;20033;-77
2022/09/04 05:14:56;;;;;;;14.15;10.88;;;17.60;88.20;;;;;;5032360;28;20036;-76
2022/09/04 05:17:43;;;;;;;14.13;10.57;;;17.60;88.40;;;;;;5031810;28;20029;-76
2022/09/04 05:21:01;;;;;;;13.25;10.15;;;17.60;88.50;;;;;;5027096;28;20410;-76
2022/09/04 05:23:43;;;;;;;15.13;10.85;;;17.60;88.70;;;;;;4989952;28;20129;-77
2022/09/04 05:26:35;;;;;;;15.45;10.00;;;17.60;88.80;;;;;;5013517;28;20041;-79
2022/09/04 05:29:18;;;;;;;14.18;10.27;;;17.70;88.90;;;;;;5016480;28;20052;-77
2022/09/04 05:32:01;;;;;;;13.52;10.73;;;17.70;89.00;;;;;;5031229;28;20405;-77
2022/09/04 05:34:51;;;;;;;14.50;10.93;;;17.70;89.00;;;;;;5030293;28;20033;-77
2022/09/04 05:37:32;;;;;;;13.82;10.18;;;17.70;89.10;;;;;;5031642;28;20101;-77
2022/09/04 05:40:03;;;;;;;13.55;10.00;;;17.70;89.20;;;;;;5028738;28;20032;-77
2022/09/04 05:42:56;;;;;;;15.48;10.70;;;17.70;89.20;;;;;;5013175;28;20026;-77
2022/09/04 05:45:48;;;;;;;13.82;11.25;;;17.70;89.30;;;;;;5012198;28;20025;-77
2022/09/04 05:48:23;;;;;;;15.30;10.32;;;17.70;89.40;;;;;;5020565;28;20390;-77
2022/09/04 05:51:15;;;;;;;13.98;9.32;;;17.70;89.40;;;;;;5020741;28;20128;-77
2022/09/04 05:54:14;;;;;;;15.75;10.43;;;17.80;89.60;;;;;;5033099;28;20038;-77
2022/09/04 05:56:52;;;;;;;14.15;10.20;;;17.80;89.60;;;;;;5034003;28;20030;-77
2022/09/04 05:59:55;;;;;;;14.90;10.45;;;17.80;89.60;;;;;;5035760;28;20037;-77
2022/09/04 06:02:20;;;;;;;15.68;10.13;;;17.80;89.60;;;;;;5022773;28;20119;-77
2022/09/04 06:05:11;;;;;;;13.90;9.82;;;17.80;89.60;;;;;;5044498;28;20485;-77
2022/09/04 06:07:42;;;;;;;16.25;10.32;;;17.90;89.80;;;;;;5029368;28;20390;-77
2022/09/04 06:10:43;;;;;;;12.68;9.48;;;17.90;89.80;;;;;;5040028;28;20041;-78
2022/09/04 06:13:19;;;;;;;13.18;9.98;;;17.90;89.90;;;;;;5054619;28;20136;-78
2022/09/04 06:16:07;;;;;;;13.77;10.25;;;17.90;89.90;;;;;;5054150;28;20033;-78
2022/09/04 06:18:52;;;;;;;13.43;9.63;;;18.00;90.00;;;;;;5027225;28;20084;-80
2022/09/04 06:21:24;;;;;;;14.70;10.30;;;18.00;89.90;;;;;;5035379;28;20519;-78
2022/09/04 06:23:55;;;;;;;12.75;10.43;;;18.00;90.00;;;;;;5025439;28;20041;-85
2022/09/04 06:26:56;;;;;;;13.02;10.05;;;18.00;90.00;;;;;;5022159;28;20034;-84
2022/09/04 06:29:31;;;;;;;14.68;9.63;;;18.20;90.30;;;;;;5016019;28;20076;-82
2022/09/04 06:32:08;;;;;;;12.77;9.90;;;18.20;90.00;;;;;;5017169;28;20065;-82
2022/09/04 06:35:00;;;;;;;13.65;9.02;;;18.30;90.10;;;;;;5030425;28;20021;-83
2022/09/04 06:37:42;;;;;;;12.52;9.35;;;18.30;90.10;;;;;;5024654;28;20075;-83
2022/09/04 06:40:08;;;;;;;12.40;8.77;;;18.40;90.10;;;;;;5024870;28;20022;-76
2022/09/04 06:42:57;;;;;;;12.30;9.60;;;18.50;90.10;;;;;;5025296;28;20029;-77
2022/09/04 06:45:44;;;;;;;12.77;9.45;;;18.50;90.10;;;;;;5025550;28;20493;-77
2022/09/04 06:48:36;;;;;;;12.15;9.15;;;18.70;90.10;;;;;;5031962;28;20029;-76
2022/09/04 06:51:20;;;;;;;15.25;8.82;;;18.80;90.10;;;;;;5034986;28;20057;-77
2022/09/04 06:54:23;;;;;;;12.52;8.40;;;18.80;90.00;;;;;;5033886;28;20037;-76
2022/09/04 06:57:27;;;;;;;13.18;9.27;;;18.90;90.00;;;;;;5034919;28;20485;-76
2022/09/04 06:59:56;;;;;;;11.98;8.10;;;18.90;89.80;;;;;;5028137;28;20041;-78
2022/09/04 07:02:24;;;;;;;12.68;8.98;;;19.00;89.60;;;;;;5013826;28;20026;-78
2022/09/04 07:05:18;;;;;;;11.98;8.95;;;19.10;89.60;;;;;;5015113;28;20025;-77
2022/09/04 07:08:22;;;;;;;13.25;9.15;;;19.10;89.50;;;;;;5029395;28;20018;-77
2022/09/04 07:11:39;;;;;;;14.02;9.10;;;19.20;89.30;;;;;;5014131;28;20053;-77
2022/09/04 07:14:42;;;;;;;14.63;10.25;;;19.20;89.20;;;;;;5011362;28;20072;-77
2022/09/04 07:17:39;;;;;;;12.18;8.52;;;19.20;88.90;;;;;;5031889;28;20030;-77
2022/09/04 07:20:36;;;;;;;13.07;9.15;;;19.20;89.40;;;;;;5029015;28;20034;-78
2022/09/04 07:23:29;;;;;;;13.45;9.73;;;19.20;88.80;;;;;;5030006;28;20025;-78
2022/09/04 07:26:31;;;;;;;12.05;8.48;;;19.20;88.80;;;;;;5013191;28;20364;-77
2022/09/04 07:29:06;;;;;;;11.75;7.95;;;19.20;88.80;;;;;;5014827;28;20105;-77
2022/09/04 07:31:40;;;;;;;12.55;9.18;;;19.30;88.80;;;;;;5014039;28;20042;-77
2022/09/04 07:34:48;;;;;;;12.52;9.25;;;19.30;88.70;;;;;;5013249;28;20029;-77
2022/09/04 07:37:13;;;;;;;16.38;10.10;;;19.30;88.90;;;;;;5029170;28;20025;-77
2022/09/04 07:39:59;;;;;;;14.07;9.75;;;19.40;88.90;;;;;;5030488;28;20025;-77
2022/09/04 07:42:41;;;;;;;12.23;9.43;;;19.40;88.90;;;;;;5024005;28;20136;-77
2022/09/04 07:45:21;;;;;;;11.85;9.48;;;19.40;88.90;;;;;;5034062;28;20025;-77
2022/09/04 07:47:58;;;;;;;12.00;9.02;;;19.40;88.90;;;;;;5032849;28;20038;-77
2022/09/04 07:50:31;;;;;;;12.18;9.30;;;19.50;89.00;;;;;;5032920;28;20052;-83
2022/09/04 07:53:06;;;;;;;13.43;9.77;;;19.50;88.90;;;;;;5034032;28;20539;-84
2022/09/04 07:55:47;;;;;;;15.35;9.98;;;19.50;89.00;;;;;;5032593;28;20032;-84
2022/09/04 07:58:38;;;;;;;12.00;8.90;;;19.50;89.00;;;;;;5033985;28;20021;-85
2022/09/04 08:01:23;;;;;;;12.73;9.40;;;19.70;89.10;;;;;;5032791;28;20079;-85
2022/09/04 08:04:25;;;;;;;12.82;9.18;;;19.70;88.90;;;;;;5032830;28;20022;-84
2022/09/04 08:07:06;;;;;;;12.00;8.50;;;19.70;89.00;;;;;;5014164;28;20084;-83
2022/09/04 08:09:46;;;;;;;12.50;9.25;;;19.80;88.90;;;;;;5030444;28;20112;-84
2022/09/04 08:12:29;;;;;;;11.38;8.70;;;19.90;89.00;;;;;;5033656;28;20029;-83
2022/09/04 08:15:02;;;;;;;13.32;8.30;;;20.00;88.90;;;;;;5033760;28;20447;-83
2022/09/04 08:17:32;;;;;;;11.25;8.25;;;20.00;88.90;;;;;;5032594;28;20026;-84
2022/09/04 08:20:15;;;;;;;12.15;8.77;;;20.10;88.80;;;;;;5033310;28;20051;-83
2022/09/04 08:22:47;;;;;;;12.65;8.85;;;20.20;88.80;;;;;;5032352;28;20025;-84
2022/09/04 08:25:30;;;;;;;14.32;8.23;;;20.30;88.70;;;;;;5032331;28;20432;-83
2022/09/04 08:28:24;;;;;;;11.30;7.72;;;20.40;88.60;;;;;;5032198;28;20531;-83
2022/09/04 08:31:04;;;;;;;;;;;20.50;88.50;;;;;;5032942;28;20034;-84
2022/09/04 08:33:51;;;;;;;9.80;6.75;;;20.50;88.30;;;;;;5032307;28;20364;-84
2022/09/04 08:36:49;;;;;;;12.85;7.50;;;20.60;88.10;;;;;;5031901;28;20036;-78
2022/09/04 08:39:28;;;;;;;10.00;7.07;;;20.70;87.90;;;;;;5017135;28;20080;-77
2022/09/04 08:42:07;;;;;;;8.40;5.95;;;20.80;87.70;;;;;;5012364;28;20079;-83
2022/09/04 08:44:36;;;;;;;10.10;7.00;;;20.90;87.50;;;;;;5016599;28;20037;-85
2022/09/04 08:47:16;;;;;;;9.48;6.03;;;21.00;87.30;;;;;;5033592;28;20082;-84
2022/09/04 08:50:07;;;;;;;9.25;6.00;;;21.10;87.10;;;;;;5032015;28;20025;-84
2022/09/04 08:53:06;;;;;;;10.27;7.03;;;21.20;86.80;;;;;;5033162;28;20103;-84
2022/09/04 08:56:00;;;;;;;8.82;6.22;;;21.30;86.40;;;;;;5032057;28;20033;-84
2022/09/04 08:59:12;;;;;;;9.15;6.07;;;21.40;86.10;;;;;;5033422;28;20018;-85
2022/09/04 09:01:53;;;;;;;8.35;5.07;;;21.50;85.80;;;;;;5031944;28;20071;-77
2022/09/04 09:04:50;;;;;;;9.57;5.50;;;21.70;85.50;;;;;;5031698;28;20041;-76
2022/09/04 09:07:54;;;;;;;10.10;6.13;;;21.80;84.80;;;;;;5031844;28;20033;-81
2022/09/04 09:10:28;;;;;;;7.80;4.25;;;21.90;84.30;;;;;;5030160;28;20060;-77
2022/09/04 09:12:57;;;;;;;6.55;4.47;;;22.00;84.00;;;;;;5033399;28;20036;-77
2022/09/04 09:15:54;;;;;;;8.35;4.72;;;22.00;83.80;;;;;;5032667;28;20029;-77
2022/09/04 09:18:38;;;;;;;8.68;5.07;;;22.10;83.50;;;;;;5031474;28;20115;-77
2022/09/04 09:21:24;;;;;;;7.18;4.65;;;22.30;83.30;;;;;;5033173;28;20449;-75
2022/09/04 09:23:55;;;;;;;8.68;4.55;;;22.30;82.90;;;;;;5032211;28;20516;-75
2022/09/04 09:26:28;;;;;;;7.57;4.75;;;22.40;82.70;;;;;;5033290;28;20048;-75
2022/09/04 09:29:24;;;;;;;8.50;4.67;;;22.50;82.50;;;;;;5033500;28;20056;-75
2022/09/04 09:32:16;;;;;;;7.03;5.00;;;22.60;82.00;;;;;;5036458;28;20083;-76
2022/09/04 09:35:07;;;;;;;6.70;4.43;;;22.70;81.60;;;;;;5035370;28;20026;-80
2022/09/04 09:37:58;;;;;;;8.35;4.75;;;22.80;81.30;;;;;;5036534;28;20014;-81
2022/09/04 09:40:54;;;;;;;6.15;3.97;;;22.90;80.90;;;;;;5025663;28;20022;-83
2022/09/04 09:43:50;;;;;;;6.00;4.10;;;23.00;80.50;;;;;;5015395;28;20075;-80
2022/09/04 09:46:21;;;;;;;7.40;4.38;;;23.10;80.10;;;;;;5012329;28;20078;-80
2022/09/04 09:49:02;;;;;;;5.63;3.33;;;23.20;79.70;;;;;;5015381;28;20080;-81
2022/09/04 09:51:48;;;;;;;8.95;4.82;;;23.30;79.30;;;;;;5016606;28;20076;-81
2022/09/04 09:54:43;;;;;;;7.07;4.07;;;23.40;78.90;;;;;;5016069;28;20026;-81
2022/09/04 09:57:50;;;;;;;8.10;4.20;;;23.50;78.30;;;;;;4997951;28;20489;-80
2022/09/04 10:00:24;;;;;;;6.03;3.75;;;23.60;77.80;;;;;;5014532;28;20112;-80
2022/09/04 10:03:12;;;;;;;11.50;2.75;;;23.70;77.60;;;;;;5015009;28;20021;-81
2022/09/04 10:05:57;;;;;;;5.53;2.95;;;23.80;77.30;;;;;;5015130;28;20033;-81
2022/09/04 10:08:41;;;;;;;4.82;2.55;;;23.90;76.70;;;;;;5015033;28;20026;-82
2022/09/04 10:11:25;;;;;;;5.68;2.80;;;24.10;76.30;;;;;;5027245;28;20060;-82
2022/09/04 10:14:03;;;;;;;5.78;3.10;;;24.20;75.80;;;;;;5035914;28;20044;-81
2022/09/04 10:16:34;;;;;;;6.35;2.30;;;24.40;75.50;;;;;;5034991;28;20080;-81
2022/09/04 10:19:22;;;;;;;6.13;2.78;;;24.60;74.80;;;;;;5034453;28;20025;-81
2022/09/04 10:22:07;;;;;;;4.82;2.75;;;24.80;73.80;;;;;;5035066;28;20022;-80
2022/09/04 10:24:39;;;;;;;5.05;2.20;;;25.10;73.30;;;;;;5035554;28;20532;-80
2022/09/04 10:27:40;;;;;;;4.75;2.30;;;25.30;73.10;;;;;;5034388;28;20025;-81
2022/09/04 10:30:25;;;;;;;5.30;2.17;;;25.60;72.20;;;;;;5035607;28;20025;-83
2022/09/04 10:33:03;;;;;;;4.03;2.40;;;25.80;71.60;;;;;;5035931;28;20057;-83
2022/09/04 10:35:35;;;;;;;5.95;2.15;;;26.10;71.00;;;;;;5034258;28;20171;-82
2022/09/04 10:38:24;;;;;;;4.65;1.90;;;26.30;69.90;;;;;;5035521;28;20021;-82
2022/09/04 10:41:01;;;;;;;5.93;2.20;;;26.50;69.10;;;;;;5035256;28;20028;-82
2022/09/04 10:43:39;;;;;;;3.97;1.95;;;26.70;68.30;;;;;;5035371;28;20022;-83
2022/09/04 10:46:10;;;;;;;3.67;1.70;;;27.00;67.50;;;;;;5034106;28;20116;-82
2022/09/04 10:48:57;;;;;;;2.55;1.38;;;27.20;67.10;;;;;;5033818;28;20475;-81
2022/09/04 10:51:38;;;;;;;3.00;0.98;;;27.40;65.80;;;;;;5035244;28;20025;-83
2022/09/04 10:54:20;;;;;;;3.22;1.33;;;27.60;65.10;;;;;;5033866;28;20059;-82
2022/09/04 10:57:00;;;;;;;1.98;0.90;;;27.80;64.10;;;;;;5033837;28;20028;-82
2022/09/04 10:59:45;;;;;;;2.22;1.05;;;28.10;63.40;;;;;;5034149;28;20113;-83
2022/09/04 11:02:31;;;;;;;1.73;0.82;;;28.30;63.10;;;;;;5035184;28;20022;-82
2022/09/04 11:05:18;;;;;;;1.77;0.82;;;28.50;62.00;;;;;;5034866;28;20052;-83
2022/09/04 11:08:04;;;;;;;2.85;1.08;;;28.80;60.60;;;;;;5033608;28;20030;-82
2022/09/04 11:10:56;;;;;;;3.30;0.75;;;29.10;59.70;;;;;;5034968;28;20389;-82
2022/09/04 11:14:06;;;;;;;4.60;1.15;;;29.40;59.20;;;;;;5034885;28;20108;-82
2022/09/04 11:16:56;;;;;;;1.20;0.52;;;29.60;58.20;;;;;;5028483;28;20117;-82
2022/09/04 11:19:46;;;;;;;1.90;0.80;;;29.80;57.70;;;;;;5034644;28;20120;-82
2022/09/04 11:22:49;;;;;;;2.72;0.90;;;30.00;57.50;;;;;;5034611;28;20025;-82
2022/09/04 11:25:25;;;;;;;2.20;0.80;;;30.20;56.30;;;;;;5034916;28;20485;-83
2022/09/04 11:28:12;;;;;;;2.10;0.68;;;30.40;56.00;;;;;;5033211;28;20624;-83
2022/09/04 11:31:12;;;;;;;2.25;0.90;;;30.50;55.40;;;;;;5033227;28;20512;-82
2022/09/04 11:33:52;;;;;;;1.73;0.77;;;30.80;54.50;;;;;;5034767;28;20053;-83
2022/09/04 11:36:34;;;;;;;2.90;1.23;;;31.00;54.70;;;;;;5033222;28;20425;-84
2022/09/04 11:39:26;;;;;;;5.78;1.05;;;31.10;53.80;;;;;;5034350;28;20029;-84
2022/09/04 11:42:19;;;;;;;2.05;0.90;;;31.30;53.40;;;;;;5033132;28;20018;-82
2022/09/04 11:45:10;;;;;;;3.88;1.05;;;31.50;53.20;;;;;;5034168;28;20108;-82
2022/09/04 11:48:13;;;;;;;3.15;0.70;;;31.60;52.60;;;;;;5034629;28;20034;-82
2022/09/04 11:51:15;;;;;;;1.48;0.63;;;31.50;52.20;;;;;;5032959;28;20151;-81
2022/09/04 11:53:43;;;;;;;2.88;0.80;;;31.50;52.20;;;;;;5045382;28;20040;-81
2022/09/04 11:56:51;;;;;;;2.05;0.60;;;31.50;52.30;;;;;;5034044;28;20034;-78
2022/09/04 11:59:20;;;;;;;1.63;0.73;;;31.60;51.50;;;;;;5017031;28;20390;-78
2022/09/04 12:01:45;;;;;;;3.28;0.93;;;31.70;51.80;;;;;;5033919;28;20053;-77
2022/09/04 12:04:34;;;;;;;2.85;0.80;;;31.70;51.70;;;;;;5033978;28;20485;-77
2022/09/04 12:07:24;;;;;;;2.28;0.70;;;31.90;51.20;;;;;;5032237;28;20037;-77
2022/09/04 12:09:52;;;;;;;1.08;0.60;;;32.20;50.20;;;;;;5017616;28;20018;-77
2022/09/04 12:12:36;;;;;;;2.95;0.70;;;32.50;50.20;;;;;;5013161;28;20080;-78
2022/09/04 12:15:16;;;;;;;1.98;0.68;;;32.70;49.60;;;;;;5013906;28;20524;-75
2022/09/04 12:18:13;;;;;;;2.80;0.73;;;32.80;49.10;;;;;;5014028;28;20026;-77
2022/09/04 12:20:47;;;;;;;1.35;0.65;;;32.70;49.10;;;;;;5013722;28;20132;-77
2022/09/04 12:23:36;;;;;;;1.60;0.70;;;32.60;49.40;;;;;;5012918;28;20030;-77
2022/09/04 12:26:48;;;;;;;2.67;0.85;;;32.50;49.30;;;;;;5014207;28;20072;-77
2022/09/04 12:29:37;;;;;;;2.25;0.80;;;32.40;49.30;;;;;;5012441;28;20037;-77
2022/09/04 12:32:05;;;;;;;3.92;0.90;;;32.30;49.50;;;;;;5013605;28;20601;-78
2022/09/04 12:34:43;;;;;;;2.35;0.90;;;32.20;49.50;;;;;;5012170;28;20104;-79
2022/09/04 12:37:42;;;;;;;4.03;1.45;;;32.10;49.70;;;;;;5012277;28;20498;-78
2022/09/04 12:40:51;;;;;;;1.83;0.82;;;32.20;49.70;;;;;;5012600;28;20111;-78
2022/09/04 12:43:24;;;;;;;4.47;0.88;;;32.30;49.50;;;;;;5013650;28;20022;-78
2022/09/04 12:46:22;;;;;;;1.60;0.68;;;32.20;49.50;;;;;;5013775;28;20065;-78
2022/09/04 12:48:54;;;;;;;2.58;0.90;;;32.20;49.30;;;;;;5027525;28;20033;-79
2022/09/04 12:51:25;;;;;;;2.78;0.63;;;32.10;49.10;;;;;;5028889;28;20029;-78
2022/09/04 12:54:18;;;;;;;2.25;0.82;;;31.90;48.90;;;;;;5031673;28;20026;-84
2022/09/04 12:57:10;;;;;;;2.20;0.70;;;31.90;48.60;;;;;;5026407;28;20037;-82
2022/09/04 12:59:43;;;;;;;2.10;0.60;;;31.80;48.70;;;;;;5035174;28;20022;-85
2022/09/04 13:02:34;;;;;;;1.30;0.50;;;31.80;48.70;;;;;;5029250;28;20474;-82
2022/09/04 13:05:34;;;;;;;2.60;0.70;;;31.80;48.70;;;;;;5031974;28;20413;-82
2022/09/04 13:08:09;;;;;;;1.85;0.70;;;32.00;48.50;;;;;;5027253;28;20026;-82
2022/09/04 13:10:46;;;;;;;2.47;0.60;;;32.10;48.50;;;;;;5048165;28;20029;-83
2022/09/04 13:13:20;;;;;;;2.72;0.70;;;32.40;48.40;;;;;;5043444;28;20450;-83
2022/09/04 13:16:04;;;;;;;2.03;0.60;;;32.60;48.20;;;;;;5036787;28;20036;-77
2022/09/04 13:18:43;;;;;;;3.40;0.70;;;32.90;47.70;;;;;;5037029;28;20021;-77
2022/09/04 13:21:33;;;;;;;2.88;0.70;;;33.00;47.20;;;;;;5021884;28;20045;-77
2022/09/04 13:23:58;;;;;;;2.95;0.50;;;33.20;46.90;;;;;;5049635;28;20082;-76
2022/09/04 13:27:06;;;;;;;3.55;0.50;;;33.20;47.00;;;;;;5039680;28;20473;-76
2022/09/04 13:30:10;;;;;;;2.00;0.65;;;33.30;46.80;;;;;;5037695;28;20030;-83
2022/09/04 13:32:47;;;;;;;3.00;0.70;;;33.20;46.90;;;;;;5036341;28;20033;-83
2022/09/04 13:35:30;;;;;;;1.77;0.60;;;33.10;46.60;;;;;;5018076;28;20164;-81
2022/09/04 13:38:14;;;;;;;2.67;0.77;;;33.10;46.80;;;;;;5015295;28;20026;-83
2022/09/04 13:41:05;;;;;;;2.15;0.50;;;33.30;46.60;;;;;;5049145;28;20028;-82
2022/09/04 13:43:50;;;;;;;2.17;0.52;;;33.50;46.50;;;;;;5036206;28;20029;-82
2022/09/04 13:46:19;;;;;;;1.45;0.50;;;33.70;45.90;;;;;;5034859;28;20033;-82
2022/09/04 13:48:51;;;;;;;1.95;0.55;;;33.90;45.50;;;;;;5029700;28;20071;-82
2022/09/04 13:51:31;;;;;;;0.70;0.25;;;34.10;45.00;;;;;;5035629;28;20147;-81
2022/09/04 13:54:15;;;;;;;2.63;0.50;;;34.30;44.40;;;;;;5034538;28;20026;-82
2022/09/04 13:57:00;;;;;;;1.45;0.50;;;34.50;44.20;;;;;;5037926;28;20033;-84
2022/09/04 13:59:28;;;;;;;2.00;0.40;;;34.80;43.70;;;;;;5033279;28;20021;-83
2022/09/04 14:01:57;;;;;;;1.00;0.38;;;35.00;43.60;;;;;;5036416;28;20075;-84
2022/09/04 14:04:38;;;;;;;1.77;0.50;;;35.20;43.20;;;;;;5038739;28;20437;-82
2022/09/04 14:07:13;;;;;;;1.85;0.40;;;35.30;42.70;;;;;;5025294;28;20036;-79
2022/09/04 14:09:45;;;;;;;2.40;0.40;;;35.40;42.60;;;;;;5047127;28;20032;-78
2022/09/04 14:12:36;;;;;;;0.90;0.30;;;35.30;42.40;;;;;;5036795;28;20025;-77
2022/09/04 14:15:12;;;;;;;2.85;0.40;;;35.30;42.10;;;;;;5044892;28;20124;-78